createdAt,value
2018-10-15T00:00:13.654Z,79.50
2018-10-15T00:02:41.930Z,79.50
2018-10-15T00:05:10.216Z,79.40
2018-10-15T00:07:38.406Z,79.50
2018-10-15T00:10:07.252Z,80.20
2018-10-15T00:12:35.494Z,80.80
2018-10-15T00:15:20.224Z,81.50
2018-10-15T00:17:48.613Z,82.10
2018-10-15T00:20:16.789Z,82.70
2018-10-15T00:22:45.046Z,82.90
2018-10-15T00:25:13.819Z,82.90
2018-10-15T00:27:42.289Z,82.20
2018-10-15T00:30:11.545Z,82.10
2018-10-15T00:32:40.583Z,82.30
2018-10-15T00:35:09.806Z,82.40
2018-10-15T00:37:38.798Z,82.70
2018-10-15T00:40:07.138Z,83.00
2018-10-15T00:42:36.266Z,84.40
2018-10-15T00:45:05.713Z,84.90
2018-10-15T00:47:33.893Z,84.70
2018-10-15T00:50:02.103Z,84.40
2018-10-15T00:52:30.276Z,84.20
2018-10-15T00:54:58.560Z,84.90
2018-10-15T00:57:26.830Z,85.50
2018-10-15T00:59:55.026Z,85.80
2018-10-15T01:02:23.291Z,85.40
2018-10-15T01:04:51.577Z,86.00
2018-10-15T01:07:19.912Z,85.80
2018-10-15T01:09:48.129Z,85.40
2018-10-15T01:12:16.305Z,85.70
2018-10-15T01:14:44.518Z,85.70
2018-10-15T01:17:12.676Z,85.90
2018-10-15T01:19:40.947Z,86.00
2018-10-15T01:22:09.148Z,85.70
2018-10-15T01:24:37.377Z,85.70
2018-10-15T01:27:05.594Z,85.90
2018-10-15T01:29:33.759Z,84.80
2018-10-15T01:32:01.990Z,85.30
2018-10-15T01:34:30.192Z,85.10
2018-10-15T01:36:58.462Z,85.80
2018-10-15T01:39:26.686Z,86.10
2018-10-15T01:41:54.961Z,86.40
2018-10-15T01:44:23.316Z,87.30
2018-10-15T01:46:51.578Z,87.20
2018-10-15T01:49:19.789Z,87.40
2018-10-15T01:51:48.066Z,87.60
2018-10-15T01:54:16.328Z,87.40
2018-10-15T01:56:44.568Z,87.20
2018-10-15T01:59:12.729Z,87.00
2018-10-15T02:01:40.958Z,87.00
2018-10-15T02:04:09.137Z,86.40
2018-10-15T02:06:37.385Z,87.00
2018-10-15T02:09:08.205Z,86.80
2018-10-15T02:11:36.460Z,86.60
2018-10-15T02:14:05.261Z,86.10
2018-10-15T02:16:33.492Z,85.90
2018-10-15T02:19:01.739Z,86.70
2018-10-15T02:21:29.921Z,86.60
2018-10-15T02:23:58.141Z,86.60
2018-10-15T02:26:26.373Z,86.80
2018-10-15T02:28:54.554Z,87.00
2018-10-15T02:31:22.765Z,86.80
2018-10-15T02:33:50.969Z,87.00
2018-10-15T02:36:19.231Z,86.80
2018-10-15T02:38:47.440Z,86.90
2018-10-15T02:41:15.693Z,86.70
2018-10-15T02:43:43.974Z,86.60
2018-10-15T02:46:12.241Z,86.40
2018-10-15T02:48:40.514Z,86.10
2018-10-15T02:51:08.777Z,86.20
2018-10-15T02:53:36.971Z,86.40
2018-10-15T02:56:05.792Z,86.40
2018-10-15T02:58:33.984Z,86.70
2018-10-15T03:01:02.202Z,86.60
2018-10-15T03:03:30.437Z,86.90
2018-10-15T03:05:58.661Z,86.60
2018-10-15T03:08:26.897Z,86.80
2018-10-15T03:10:55.137Z,86.90
2018-10-15T03:13:23.363Z,86.90
2018-10-15T03:15:51.590Z,86.80
2018-10-15T03:18:19.797Z,86.80
2018-10-15T03:20:48.061Z,87.40
2018-10-15T03:23:16.294Z,87.00
2018-10-15T03:25:44.554Z,87.20
2018-10-15T03:28:12.808Z,87.10
2018-10-15T03:30:40.981Z,87.10
2018-10-15T03:35:50.413Z,87.00
2018-10-15T03:38:18.633Z,87.20
2018-10-15T03:40:46.820Z,87.60
2018-10-15T03:43:15.066Z,87.30
2018-10-15T03:45:43.290Z,87.10
2018-10-15T03:48:11.558Z,87.50
2018-10-15T03:50:39.771Z,87.50
2018-10-15T03:53:07.983Z,87.70
2018-10-15T03:55:36.234Z,87.20
2018-10-15T03:58:04.988Z,87.40
2018-10-15T04:00:33.297Z,87.00
2018-10-15T04:03:04.462Z,87.10
2018-10-15T04:05:32.712Z,87.10
2018-10-15T04:08:00.949Z,86.60
2018-10-15T04:10:29.134Z,87.40
2018-10-15T04:12:57.330Z,88.50
2018-10-15T04:15:25.554Z,88.70
2018-10-15T04:17:53.809Z,89.10
2018-10-15T04:20:22.022Z,89.80
2018-10-15T04:22:51.001Z,90.60
2018-10-15T04:25:21.489Z,91.30
2018-10-15T04:27:49.682Z,91.10
2018-10-15T04:30:18.378Z,91.60
2018-10-15T04:32:47.361Z,91.50
2018-10-15T04:35:15.585Z,91.40
2018-10-15T04:37:43.843Z,91.60
2018-10-15T04:40:12.952Z,91.20
2018-10-15T04:42:42.270Z,91.00
2018-10-15T04:45:11.649Z,90.30
2018-10-15T04:47:40.583Z,90.10
2018-10-15T04:50:09.458Z,90.20
2018-10-15T04:52:37.661Z,89.80
2018-10-15T04:55:06.568Z,89.70
2018-10-15T04:57:35.021Z,89.50
2018-10-15T05:00:03.357Z,90.10
2018-10-15T05:02:31.557Z,90.00
2018-10-15T05:04:59.816Z,90.40
2018-10-15T05:07:28.073Z,90.10
2018-10-15T05:09:56.260Z,90.30
2018-10-15T05:12:24.598Z,90.10
2018-10-15T05:14:52.773Z,90.20
2018-10-15T05:17:21.776Z,90.10
2018-10-15T05:19:50.719Z,90.00
2018-10-15T05:22:18.925Z,90.10
2018-10-15T05:24:47.663Z,89.60
2018-10-15T05:27:16.416Z,90.00
2018-10-15T05:29:45.146Z,89.80
2018-10-15T05:32:13.378Z,89.80
2018-10-15T05:34:41.577Z,90.00
2018-10-15T05:37:09.813Z,89.70
2018-10-15T05:39:38.062Z,90.20
2018-10-15T05:42:06.373Z,89.90
2018-10-15T05:44:34.582Z,89.90
2018-10-15T05:47:02.812Z,90.00
2018-10-15T05:49:31.098Z,89.80
2018-10-15T05:51:59.321Z,90.10
2018-10-15T05:54:27.554Z,89.60
2018-10-15T05:56:55.806Z,89.50
2018-10-15T05:59:24.018Z,89.40
2018-10-15T06:01:52.321Z,89.20
2018-10-15T06:04:20.535Z,89.20
2018-10-15T06:06:48.804Z,88.90
2018-10-15T06:09:17.010Z,89.50
2018-10-15T06:11:45.257Z,89.30
2018-10-15T06:14:13.482Z,88.90
2018-10-15T06:16:41.842Z,88.90
2018-10-15T06:19:10.125Z,88.90
2018-10-15T06:21:38.530Z,88.40
2018-10-15T06:24:08.134Z,88.30
2018-10-15T06:26:36.393Z,87.80
2018-10-15T06:29:04.778Z,87.20
2018-10-15T06:31:32.999Z,87.60
2018-10-15T06:34:01.264Z,87.20
2018-10-15T06:36:29.507Z,86.90
2018-10-15T06:38:57.766Z,86.30
2018-10-15T06:41:26.029Z,85.90
2018-10-15T06:43:54.323Z,85.70
2018-10-15T06:46:22.619Z,85.20
2018-10-15T06:48:50.867Z,85.60
2018-10-15T06:51:19.154Z,85.70
2018-10-15T06:53:47.420Z,85.70
2018-10-15T06:56:15.658Z,85.90
2018-10-15T06:58:43.861Z,85.50
2018-10-15T07:01:12.274Z,85.20
2018-10-15T07:03:40.637Z,84.60
2018-10-15T07:06:09.016Z,83.40
2018-10-15T07:08:37.269Z,81.10
2018-10-15T07:11:05.502Z,81.10
2018-10-15T07:13:33.816Z,81.10
2018-10-15T07:16:02.045Z,81.00
2018-10-15T07:18:30.285Z,83.10
2018-10-15T07:20:58.614Z,84.10
2018-10-15T07:23:26.847Z,83.90
2018-10-15T07:25:55.082Z,82.70
2018-10-15T07:28:23.327Z,81.60
2018-10-15T07:30:52.469Z,81.50
2018-10-15T07:33:20.718Z,81.20
2018-10-15T07:35:48.946Z,80.20
2018-10-15T07:38:17.220Z,80.30
2018-10-15T07:40:45.398Z,79.50
2018-10-15T07:43:13.702Z,80.40
2018-10-15T07:45:41.983Z,79.40
2018-10-15T07:48:10.286Z,78.50
2018-10-15T07:50:38.491Z,77.50
2018-10-15T07:53:06.795Z,77.60
2018-10-15T07:55:34.988Z,76.80
2018-10-15T07:58:03.282Z,74.30
2018-10-15T08:00:31.603Z,74.40
2018-10-15T08:02:59.881Z,74.20
2018-10-15T08:05:28.611Z,74.40
2018-10-15T08:07:58.364Z,74.40
2018-10-15T08:10:27.677Z,74.40
2018-10-15T08:12:56.318Z,74.20
2018-10-15T08:15:25.005Z,74.10
2018-10-15T08:17:53.198Z,73.60
2018-10-15T08:20:22.010Z,73.80
2018-10-15T08:22:50.226Z,74.10
2018-10-15T08:25:18.514Z,74.00
2018-10-15T08:27:46.720Z,73.70
2018-10-15T08:30:16.891Z,73.40
2018-10-15T08:32:45.558Z,73.40
2018-10-15T08:35:14.250Z,72.80
2018-10-15T08:37:42.507Z,72.50
2018-10-15T08:40:12.982Z,72.40
2018-10-15T08:42:46.149Z,72.00
2018-10-15T08:45:16.429Z,72.10
2018-10-15T08:47:45.214Z,72.50
2018-10-15T08:50:14.565Z,72.60
2018-10-15T08:52:44.208Z,72.10
2018-10-15T08:55:12.445Z,70.90
2018-10-15T08:57:40.654Z,71.60
2018-10-15T09:00:12.672Z,72.10
2018-10-15T09:02:40.896Z,70.40
2018-10-15T09:05:10.462Z,69.60
2018-10-15T09:07:39.526Z,68.20
2018-10-15T09:10:08.786Z,69.70
2018-10-15T09:12:37.243Z,69.80
2018-10-15T09:15:08.298Z,69.10
2018-10-15T09:17:36.527Z,69.70
2018-10-15T09:20:04.893Z,68.70
2018-10-15T09:22:33.154Z,68.90
2018-10-15T09:25:01.411Z,67.40
2018-10-15T09:27:29.756Z,69.10
2018-10-15T09:29:57.918Z,68.70
2018-10-15T09:32:26.100Z,68.90
2018-10-15T09:34:54.710Z,67.00
2018-10-15T09:37:22.866Z,68.60
2018-10-15T09:39:51.202Z,68.00
2018-10-15T09:42:19.353Z,67.70
2018-10-15T09:44:47.565Z,67.50
2018-10-15T09:47:15.865Z,67.60
2018-10-15T09:49:44.130Z,65.50
2018-10-15T09:52:12.348Z,64.60
2018-10-15T09:54:40.596Z,65.70
2018-10-15T09:57:08.825Z,64.20
2018-10-15T09:59:37.077Z,63.80
2018-10-15T10:02:08.433Z,64.30
2018-10-15T10:04:37.076Z,64.80
2018-10-15T10:07:05.586Z,63.60
2018-10-15T10:09:33.790Z,63.00
2018-10-15T10:12:02.070Z,63.00
2018-10-15T10:14:30.344Z,61.70
2018-10-15T10:16:58.880Z,62.40
2018-10-15T10:19:27.149Z,62.70
2018-10-15T10:21:55.372Z,63.10
2018-10-15T10:24:23.732Z,62.40
2018-10-15T10:26:52.272Z,61.80
2018-10-15T10:29:20.566Z,60.30
2018-10-15T10:31:48.761Z,61.10
2018-10-15T10:34:24.362Z,61.70
2018-10-15T10:36:59.894Z,62.60
2018-10-15T10:39:28.049Z,62.50
2018-10-15T10:41:56.295Z,60.90
2018-10-15T10:44:24.499Z,61.30
2018-10-15T10:46:52.993Z,60.40
2018-10-15T10:49:21.288Z,59.60
2018-10-15T10:51:49.508Z,60.30
2018-10-15T10:54:17.705Z,58.70
2018-10-15T10:56:45.947Z,58.20
2018-10-15T10:59:14.181Z,58.60
2018-10-15T11:01:42.433Z,57.90
2018-10-15T11:04:10.650Z,58.80
2018-10-15T11:06:38.813Z,59.40
2018-10-15T11:09:09.009Z,57.80
2018-10-15T11:11:37.222Z,58.50
2018-10-15T11:14:05.456Z,57.90
2018-10-15T11:16:33.673Z,56.00
2018-10-15T11:19:01.932Z,55.70
2018-10-15T11:21:30.124Z,55.90
2018-10-15T11:23:58.332Z,56.40
2018-10-15T11:26:26.549Z,56.00
2018-10-15T11:28:54.718Z,55.50
2018-10-15T11:31:22.925Z,55.00
2018-10-15T11:33:51.133Z,55.80
2018-10-15T11:36:19.338Z,55.70
2018-10-15T11:38:47.561Z,56.20
2018-10-15T11:41:15.750Z,55.80
2018-10-15T11:43:44.016Z,56.60
2018-10-15T11:46:19.057Z,55.80
2018-10-15T11:48:47.283Z,54.60
2018-10-15T11:51:15.550Z,53.10
2018-10-15T11:53:43.803Z,53.60
2018-10-15T11:56:11.966Z,54.90
2018-10-15T11:58:40.194Z,55.20
2018-10-15T12:01:08.457Z,55.30
2018-10-15T12:03:36.672Z,55.60
2018-10-15T12:06:04.991Z,55.50
2018-10-15T12:08:33.174Z,55.30
2018-10-15T12:11:01.449Z,55.60
2018-10-15T12:13:29.678Z,55.50
2018-10-15T12:15:57.861Z,56.40
2018-10-15T12:18:26.145Z,57.00
2018-10-15T12:20:54.347Z,56.60
2018-10-15T12:23:22.586Z,57.10
2018-10-15T12:25:50.766Z,56.90
2018-10-15T12:28:18.982Z,57.40
2018-10-15T12:30:47.220Z,56.10
2018-10-15T12:33:15.761Z,57.20
2018-10-15T12:35:43.965Z,57.60
2018-10-15T12:38:12.158Z,57.00
2018-10-15T12:40:40.373Z,57.00
2018-10-15T12:43:08.568Z,57.00
2018-10-15T12:45:42.154Z,56.40
2018-10-15T12:48:10.386Z,54.20
2018-10-15T12:50:38.602Z,55.30
2018-10-15T12:53:06.837Z,54.30
2018-10-15T12:55:35.061Z,54.10
2018-10-15T12:58:03.409Z,53.00
2018-10-15T13:00:31.590Z,53.70
2018-10-15T13:02:59.814Z,52.70
2018-10-15T13:05:30.150Z,52.40
2018-10-15T13:07:59.488Z,52.60
2018-10-15T13:10:28.576Z,52.30
2018-10-15T13:12:56.784Z,52.60
2018-10-15T13:15:25.469Z,52.50
2018-10-15T13:17:54.326Z,53.80
2018-10-15T13:20:22.788Z,53.00
2018-10-15T13:22:51.254Z,53.70
2018-10-15T13:25:19.517Z,53.80
2018-10-15T13:27:47.785Z,55.80
2018-10-15T13:30:16.219Z,56.80
2018-10-15T13:32:44.948Z,59.10
2018-10-15T13:35:14.418Z,58.90
2018-10-15T13:37:43.563Z,59.40
2018-10-15T13:40:11.821Z,60.40
2018-10-15T13:42:39.999Z,60.20
2018-10-15T13:45:09.503Z,61.30
2018-10-15T13:47:37.835Z,59.10
2018-10-15T13:50:07.207Z,61.10
2018-10-15T13:52:35.460Z,61.10
2018-10-15T13:55:03.778Z,62.20
2018-10-15T13:57:32.152Z,59.80
2018-10-15T14:00:10.592Z,60.70
2018-10-15T14:02:39.515Z,60.80
2018-10-15T14:05:08.697Z,60.90
2018-10-15T14:07:37.977Z,61.90
2018-10-15T14:10:08.222Z,61.80
2018-10-15T14:12:37.806Z,62.00
2018-10-15T14:15:06.122Z,62.80
2018-10-15T14:17:34.494Z,63.30
2018-10-15T14:20:02.917Z,63.00
2018-10-15T14:22:31.357Z,62.80
2018-10-15T14:24:59.622Z,62.80
2018-10-15T14:27:28.042Z,63.40
2018-10-15T14:29:56.302Z,63.60
2018-10-15T14:32:24.592Z,63.30
2018-10-15T14:34:52.783Z,62.90
2018-10-15T14:37:20.993Z,63.20
2018-10-15T14:39:49.168Z,63.80
2018-10-15T14:42:17.605Z,63.80
2018-10-15T14:44:45.765Z,63.90
2018-10-15T14:47:13.990Z,63.40
2018-10-15T14:49:42.557Z,64.20
2018-10-15T14:52:10.760Z,64.30
2018-10-15T14:54:38.953Z,64.80
2018-10-15T14:57:07.185Z,64.90
2018-10-15T14:59:35.373Z,65.20
2018-10-15T15:02:03.732Z,65.90
2018-10-15T15:04:31.944Z,66.60
2018-10-15T15:07:00.387Z,66.40
2018-10-15T15:09:39.600Z,67.40
2018-10-15T15:12:18.782Z,68.40
2018-10-15T15:14:46.979Z,69.20
2018-10-15T15:17:15.186Z,69.50
2018-10-15T15:19:43.394Z,70.00
2018-10-15T15:22:11.604Z,70.10
2018-10-15T15:24:39.813Z,70.80
2018-10-15T15:27:08.081Z,71.30
2018-10-15T15:29:36.280Z,71.50
2018-10-15T15:32:04.624Z,71.80
2018-10-15T15:34:32.852Z,71.80
2018-10-15T15:37:01.101Z,72.30
2018-10-15T15:39:29.276Z,72.10
2018-10-15T15:41:57.555Z,72.10
2018-10-15T15:44:25.743Z,72.00
2018-10-15T15:46:53.985Z,72.20
2018-10-15T15:49:22.168Z,72.60
2018-10-15T15:51:50.380Z,72.90
2018-10-15T15:54:18.796Z,73.60
2018-10-15T15:56:46.968Z,73.70
2018-10-15T15:59:15.217Z,73.50
2018-10-15T16:01:43.487Z,73.90
2018-10-15T16:04:11.668Z,74.20
2018-10-15T16:06:39.869Z,74.10
2018-10-15T16:09:09.960Z,74.10
2018-10-15T16:11:38.177Z,74.30
2018-10-15T16:14:06.360Z,74.50
2018-10-15T16:16:34.601Z,75.00
2018-10-15T16:19:02.788Z,75.40
2018-10-15T16:21:31.038Z,74.90
2018-10-15T16:23:59.260Z,75.20
2018-10-15T16:26:27.501Z,75.90
2018-10-15T16:28:55.733Z,76.20
2018-10-15T16:31:23.953Z,75.90
2018-10-15T16:33:52.166Z,76.00
2018-10-15T16:36:20.417Z,76.10
2018-10-15T16:38:48.638Z,76.20
2018-10-15T16:41:16.870Z,76.30
2018-10-15T16:43:45.101Z,76.20
2018-10-15T16:46:13.320Z,76.10
2018-10-15T16:48:41.556Z,76.30
2018-10-15T16:51:09.767Z,76.40
2018-10-15T16:53:37.955Z,76.10
2018-10-15T16:56:06.177Z,75.80
2018-10-15T16:58:34.358Z,75.60
2018-10-15T17:01:02.617Z,75.70
2018-10-15T17:03:30.846Z,76.00
2018-10-15T17:05:59.005Z,76.20
2018-10-15T17:08:27.213Z,76.40
2018-10-15T17:10:55.478Z,76.70
2018-10-15T17:13:23.730Z,76.80
2018-10-15T17:15:52.316Z,76.80
2018-10-15T17:18:20.486Z,76.70
2018-10-15T17:20:48.694Z,77.00
2018-10-15T17:23:16.877Z,77.20
2018-10-15T17:25:45.074Z,77.20
2018-10-15T17:28:13.229Z,77.60
2018-10-15T17:30:41.442Z,78.00
2018-10-15T17:33:09.685Z,78.10
2018-10-15T17:35:37.869Z,78.20
2018-10-15T17:38:06.088Z,78.20
2018-10-15T17:40:34.253Z,78.30
2018-10-15T17:43:02.503Z,78.20
2018-10-15T17:45:30.684Z,78.40
2018-10-15T17:47:58.969Z,78.60
2018-10-15T17:50:27.729Z,79.30
2018-10-15T17:52:55.992Z,79.80
2018-10-15T17:55:24.185Z,80.20
2018-10-15T17:57:52.375Z,80.50
2018-10-15T18:00:26.025Z,80.50
2018-10-15T18:02:54.309Z,80.60
2018-10-15T18:05:22.598Z,80.60
2018-10-15T18:07:50.809Z,80.40
2018-10-15T18:10:19.005Z,80.30
2018-10-15T18:12:48.198Z,80.10
2018-10-15T18:15:16.429Z,80.40
2018-10-15T18:17:44.805Z,80.10
2018-10-15T18:20:13.017Z,80.30
2018-10-15T18:22:41.246Z,80.30
2018-10-15T18:25:09.916Z,80.70
2018-10-15T18:34:37.862Z,81.20
2018-10-15T18:37:06.149Z,82.10
2018-10-15T18:39:34.942Z,82.20
2018-10-15T18:42:03.168Z,82.30
2018-10-15T18:44:31.377Z,82.40
2018-10-15T18:46:59.654Z,82.40
2018-10-15T18:49:28.725Z,82.20
2018-10-15T18:51:57.323Z,82.40
2018-10-15T18:54:25.669Z,82.60
2018-10-15T18:56:53.958Z,82.70
2018-10-15T18:59:22.142Z,82.90
2018-10-15T19:01:51.712Z,82.90
2018-10-15T19:04:19.896Z,83.00
2018-10-15T19:06:48.180Z,83.00
2018-10-15T19:09:16.470Z,83.00
2018-10-15T19:11:44.817Z,83.00
2018-10-15T19:14:13.014Z,82.70
2018-10-15T19:16:41.306Z,82.90
2018-10-15T19:19:09.600Z,82.70
2018-10-15T19:21:37.854Z,83.20
2018-10-15T19:24:06.402Z,83.70
2018-10-15T19:26:34.716Z,83.40
2018-10-15T19:29:03.041Z,83.70
2018-10-15T19:31:31.301Z,84.00
2018-10-15T19:34:00.376Z,83.90
2018-10-15T19:36:28.670Z,84.40
2018-10-15T19:38:57.144Z,84.40
2018-10-15T19:41:25.459Z,85.30
2018-10-15T19:43:53.783Z,85.10
2018-10-15T19:46:22.026Z,85.10
2018-10-15T19:48:50.253Z,84.40
2018-10-15T19:51:18.474Z,84.80
2018-10-15T19:53:46.744Z,84.80
2018-10-15T19:56:15.053Z,84.90
2018-10-15T19:58:43.334Z,84.80
2018-10-15T20:01:11.600Z,85.10
2018-10-15T20:03:39.905Z,85.50
2018-10-15T20:06:08.119Z,85.10
2018-10-15T20:08:36.305Z,85.00
2018-10-15T20:11:04.950Z,84.80
2018-10-15T20:13:33.138Z,85.00
2018-10-15T20:16:01.313Z,85.00
2018-10-15T20:18:29.522Z,85.00
2018-10-15T20:20:57.704Z,85.70
2018-10-15T20:23:26.090Z,85.50
2018-10-15T20:25:54.330Z,85.40
2018-10-15T20:28:22.629Z,85.60
2018-10-15T20:30:50.874Z,85.60
2018-10-15T20:33:19.289Z,85.20
2018-10-15T20:35:47.608Z,85.50
2018-10-15T20:38:16.151Z,86.10
2018-10-15T20:40:44.337Z,86.30
2018-10-15T20:43:12.669Z,86.70
2018-10-15T20:45:41.133Z,86.70
2018-10-15T20:48:09.377Z,87.10
2018-10-15T20:50:37.618Z,87.50
2018-10-15T20:53:05.836Z,87.70
2018-10-15T20:55:34.040Z,88.50
2018-10-15T20:58:02.213Z,88.40
2018-10-15T21:00:30.457Z,88.10
2018-10-15T21:02:58.674Z,88.20
2018-10-15T21:05:26.889Z,88.10
2018-10-15T21:07:55.090Z,87.90
2018-10-15T21:10:23.301Z,87.60
2018-10-15T21:12:51.506Z,87.20
2018-10-15T21:15:19.729Z,87.70
2018-10-15T21:17:47.918Z,87.60
2018-10-15T21:20:16.134Z,87.50
2018-10-15T21:22:44.357Z,87.70
2018-10-15T21:25:12.559Z,87.80
2018-10-15T21:27:40.785Z,88.20
2018-10-15T21:30:09.857Z,88.20
2018-10-15T21:32:39.069Z,87.90
2018-10-15T21:35:08.449Z,87.80
2018-10-15T21:37:36.669Z,87.40
2018-10-15T21:40:05.403Z,87.60
2018-10-15T21:42:33.581Z,88.00
2018-10-15T21:45:01.794Z,88.50
2018-10-15T21:47:29.987Z,88.20
2018-10-15T21:49:58.237Z,88.40
2018-10-15T21:52:26.469Z,88.40
2018-10-15T21:54:54.677Z,88.90
2018-10-15T21:57:22.948Z,89.20
2018-10-15T21:59:51.213Z,89.00
2018-10-15T22:02:19.497Z,88.70
2018-10-15T22:04:47.808Z,88.80
2018-10-15T22:07:16.113Z,88.30
2018-10-15T22:09:44.335Z,88.50
2018-10-15T22:12:12.537Z,89.50
2018-10-15T22:14:40.763Z,89.40
2018-10-15T22:17:08.963Z,89.40
2018-10-15T22:19:37.213Z,89.40
2018-10-15T22:22:05.456Z,89.10
2018-10-15T22:24:33.646Z,89.60
2018-10-15T22:27:01.866Z,89.40
2018-10-15T22:29:30.038Z,89.20
2018-10-15T22:31:58.257Z,89.60
2018-10-15T22:34:26.433Z,89.90
2018-10-15T22:36:54.628Z,89.70
2018-10-15T22:39:22.828Z,89.60
2018-10-15T22:41:51.001Z,89.40
2018-10-15T22:44:25.893Z,89.30
2018-10-15T22:46:54.057Z,89.30
2018-10-15T22:49:22.265Z,88.90
2018-10-15T22:51:50.421Z,88.70
2018-10-15T22:54:18.634Z,89.10
2018-10-15T22:56:46.849Z,88.40
2018-10-15T22:59:15.044Z,88.90
2018-10-15T23:01:43.245Z,89.20
2018-10-15T23:04:11.425Z,89.30
2018-10-15T23:06:39.665Z,89.10
2018-10-15T23:09:08.839Z,88.90
2018-10-15T23:11:37.025Z,89.00
2018-10-15T23:14:05.244Z,88.80
2018-10-15T23:16:33.423Z,89.20
2018-10-15T23:19:01.623Z,89.30
2018-10-15T23:21:29.821Z,89.40
2018-10-15T23:23:58.022Z,89.40
2018-10-15T23:26:26.251Z,89.70
2018-10-15T23:28:54.421Z,89.50
2018-10-15T23:31:22.662Z,89.80
2018-10-15T23:33:57.673Z,89.80
2018-10-15T23:36:25.913Z,89.60
2018-10-15T23:38:54.150Z,89.90
2018-10-15T23:41:22.322Z,90.30
2018-10-15T23:43:50.529Z,90.40
2018-10-15T23:46:18.810Z,90.40
2018-10-15T23:48:47.004Z,90.70
2018-10-15T23:51:15.221Z,91.00
2018-10-15T23:53:43.402Z,91.40
2018-10-15T23:56:11.601Z,90.80
2018-10-15T23:58:39.846Z,90.70
